createdAt,value
2022-12-02T00:01:02.419Z,86.16
2022-12-02T00:03:11.322Z,86.17
2022-12-02T00:05:28.743Z,86.28
2022-12-02T00:07:33.424Z,86.33
2022-12-02T00:09:38.812Z,86.27
2022-12-02T00:11:45.201Z,86.38
2022-12-02T00:13:49.959Z,86.37
2022-12-02T00:15:58.561Z,86.58
2022-12-02T00:18:03.399Z,86.49
2022-12-02T00:20:10.502Z,86.49
2022-12-02T00:22:15.195Z,86.29
2022-12-02T00:24:20.152Z,86.23
2022-12-02T00:26:24.864Z,86.07
2022-12-02T00:28:29.634Z,86.02
2022-12-02T00:30:34.387Z,85.86
2022-12-02T00:32:39.093Z,85.87
2022-12-02T00:34:43.803Z,85.93
2022-12-02T00:36:48.553Z,85.95
2022-12-02T00:38:53.407Z,86.11
2022-12-02T00:40:58.184Z,86.29
2022-12-02T00:43:03.328Z,86.66
2022-12-02T00:45:11.967Z,86.60
2022-12-02T00:47:21.955Z,86.78
2022-12-02T00:49:26.655Z,86.76
2022-12-02T00:51:31.380Z,86.67
2022-12-02T00:53:36.125Z,86.83
2022-12-02T00:55:41.045Z,87.02
2022-12-02T00:57:46.033Z,87.36
2022-12-02T00:59:50.789Z,87.22
2022-12-02T01:01:59.505Z,87.18
2022-12-02T01:04:04.734Z,87.00
2022-12-02T01:06:09.557Z,86.90
2022-12-02T01:08:14.350Z,87.21
2022-12-02T01:10:19.205Z,86.93
2022-12-02T01:12:25.133Z,86.94
2022-12-02T01:14:29.735Z,87.05
2022-12-02T01:16:34.455Z,86.83
2022-12-02T01:18:39.212Z,86.80
2022-12-02T01:20:43.954Z,86.88
2022-12-02T01:22:48.627Z,86.82
2022-12-02T01:24:54.079Z,86.99
2022-12-02T01:26:58.835Z,87.00
2022-12-02T01:29:03.830Z,87.02
2022-12-02T01:31:08.786Z,87.08
2022-12-02T01:33:13.710Z,87.24
2022-12-02T01:35:18.794Z,87.13
2022-12-02T01:37:23.433Z,86.99
2022-12-02T01:39:28.080Z,86.66
2022-12-02T01:41:32.969Z,86.88
2022-12-02T01:43:37.603Z,87.04
2022-12-02T01:45:42.608Z,86.97
2022-12-02T01:47:47.444Z,86.67
2022-12-02T01:49:52.438Z,86.86
2022-12-02T01:51:57.471Z,87.14
2022-12-02T01:54:02.420Z,87.32
2022-12-02T01:56:09.365Z,87.32
2022-12-02T01:58:15.320Z,87.34
2022-12-02T02:00:21.236Z,87.29
2022-12-02T02:02:31.028Z,87.19
2022-12-02T02:04:35.761Z,87.21
2022-12-02T02:06:42.959Z,87.20
2022-12-02T02:08:47.821Z,87.24
2022-12-02T02:10:52.588Z,87.20
2022-12-02T02:12:57.762Z,87.15
2022-12-02T02:15:03.898Z,87.47
2022-12-02T02:17:08.914Z,87.60
2022-12-02T02:19:15.524Z,87.47
2022-12-02T02:21:23.764Z,87.30
2022-12-02T02:23:29.527Z,87.18
2022-12-02T02:25:34.689Z,87.09
2022-12-02T02:27:39.570Z,87.30
2022-12-02T02:29:44.706Z,87.44
2022-12-02T02:31:50.339Z,87.34
2022-12-02T02:33:55.243Z,87.38
2022-12-02T02:36:00.949Z,87.38
2022-12-02T02:38:08.163Z,87.77
2022-12-02T02:40:16.297Z,87.85
2022-12-02T02:42:21.762Z,87.87
2022-12-02T02:44:27.205Z,87.78
2022-12-02T02:46:32.384Z,87.68
2022-12-02T02:48:37.582Z,87.73
2022-12-02T02:50:45.859Z,87.66
2022-12-02T02:52:51.482Z,87.59
2022-12-02T02:54:56.127Z,87.75
2022-12-02T02:57:02.527Z,87.42
2022-12-02T02:59:10.965Z,87.37
2022-12-02T03:01:21.135Z,87.09
2022-12-02T03:03:28.622Z,86.76
2022-12-02T03:05:34.357Z,87.09
2022-12-02T03:07:39.515Z,87.24
2022-12-02T03:09:45.719Z,86.84
2022-12-02T03:11:52.417Z,86.89
2022-12-02T03:13:57.912Z,86.68
2022-12-02T03:16:05.007Z,86.94
2022-12-02T03:18:09.974Z,86.72
2022-12-02T03:20:15.785Z,86.93
2022-12-02T03:22:20.609Z,86.93
2022-12-02T03:24:25.588Z,87.04
2022-12-02T03:26:30.643Z,87.11
2022-12-02T03:28:35.995Z,87.10
2022-12-02T03:30:41.217Z,87.28
2022-12-02T03:32:46.234Z,87.55
2022-12-02T03:34:51.285Z,87.52
2022-12-02T03:36:58.352Z,87.72
2022-12-02T03:39:04.543Z,87.61
2022-12-02T03:41:09.788Z,87.75
2022-12-02T03:43:14.766Z,87.46
2022-12-02T03:45:20.042Z,87.39
2022-12-02T03:47:24.697Z,87.56
2022-12-02T03:49:33.845Z,87.45
2022-12-02T03:51:38.650Z,87.76
2022-12-02T03:53:43.892Z,87.66
2022-12-02T03:55:49.204Z,87.72
2022-12-02T03:57:53.942Z,87.80
2022-12-02T03:59:58.892Z,88.01
2022-12-02T04:02:03.580Z,88.13
2022-12-02T04:04:08.281Z,87.99
2022-12-02T04:06:13.394Z,88.29
2022-12-02T04:08:18.116Z,88.02
2022-12-02T04:10:22.780Z,88.17
2022-12-02T04:12:27.457Z,88.03
2022-12-02T04:14:32.167Z,88.07
2022-12-02T04:16:36.824Z,88.28
2022-12-02T04:18:41.426Z,88.23
2022-12-02T04:20:46.384Z,88.11
2022-12-02T04:22:51.035Z,88.27
2022-12-02T04:24:55.607Z,88.22
2022-12-02T04:27:00.290Z,88.24
2022-12-02T04:29:05.075Z,88.03
2022-12-02T04:31:09.831Z,88.23
2022-12-02T04:33:14.603Z,88.57
2022-12-02T04:35:19.459Z,88.25
2022-12-02T04:37:24.055Z,88.24
2022-12-02T04:39:28.771Z,88.34
2022-12-02T04:41:33.306Z,88.10
2022-12-02T04:43:38.010Z,87.90
2022-12-02T04:45:42.722Z,87.90
2022-12-02T04:47:47.465Z,87.93
2022-12-02T04:49:52.153Z,88.09
2022-12-02T04:51:56.828Z,87.98
2022-12-02T04:54:01.674Z,88.48
2022-12-02T04:56:07.039Z,88.44
2022-12-02T04:58:11.822Z,88.23
2022-12-02T05:00:20.391Z,88.18
2022-12-02T05:02:25.051Z,88.41
2022-12-02T05:04:30.179Z,88.49
2022-12-02T05:06:36.492Z,88.18
2022-12-02T05:08:41.130Z,88.34
2022-12-02T05:10:45.905Z,88.14
2022-12-02T05:12:50.615Z,88.09
2022-12-02T05:14:55.380Z,88.06
2022-12-02T05:17:00.080Z,87.97
2022-12-02T05:19:05.234Z,88.11
2022-12-02T05:21:09.831Z,87.96
2022-12-02T05:23:14.452Z,87.82
2022-12-02T05:25:19.360Z,88.02
2022-12-02T05:27:24.059Z,88.12
2022-12-02T05:29:28.961Z,88.10
2022-12-02T05:31:33.765Z,88.09
2022-12-02T05:33:38.624Z,88.06
2022-12-02T05:35:43.254Z,88.05
2022-12-02T05:37:47.974Z,87.87
2022-12-02T05:39:53.331Z,87.97
2022-12-02T05:42:05.345Z,87.96
2022-12-02T05:44:20.004Z,87.84
2022-12-02T05:46:30.171Z,87.90
2022-12-02T05:48:36.257Z,87.81
2022-12-02T05:50:41.204Z,88.01
2022-12-02T05:52:45.936Z,87.85
2022-12-02T05:54:53.935Z,87.63
2022-12-02T05:57:01.978Z,87.69
2022-12-02T05:59:13.219Z,87.98
2022-12-02T06:01:22.518Z,88.31
2022-12-02T06:03:27.732Z,88.19
2022-12-02T06:05:37.154Z,88.31
2022-12-02T06:07:42.035Z,88.10
2022-12-02T06:09:46.941Z,87.94
2022-12-02T06:11:52.248Z,87.88
2022-12-02T06:13:58.457Z,87.75
2022-12-02T06:16:06.625Z,88.12
2022-12-02T06:18:15.639Z,88.16
2022-12-02T06:20:26.858Z,88.69
2022-12-02T06:22:33.324Z,88.25
2022-12-02T06:24:38.375Z,88.17
2022-12-02T06:26:43.051Z,88.23
2022-12-02T06:28:49.662Z,88.63
2022-12-02T06:30:58.757Z,88.58
2022-12-02T06:33:03.504Z,88.64
2022-12-02T06:35:20.376Z,88.74
2022-12-02T06:37:29.270Z,88.64
2022-12-02T06:39:35.277Z,88.66
2022-12-02T06:41:40.060Z,88.64
2022-12-02T06:43:44.931Z,88.80
2022-12-02T06:45:49.770Z,88.88
2022-12-02T06:48:13.462Z,88.76
2022-12-02T06:50:42.520Z,88.82
2022-12-02T06:52:48.186Z,88.65
2022-12-02T06:54:54.134Z,88.79
2022-12-02T06:57:01.992Z,88.81
2022-12-02T06:59:16.070Z,88.60
2022-12-02T07:01:29.256Z,88.71
2022-12-02T07:03:36.751Z,89.01
2022-12-02T07:05:41.405Z,88.84
2022-12-02T07:07:46.271Z,88.88
2022-12-02T07:09:55.511Z,88.68
2022-12-02T07:12:01.044Z,88.94
2022-12-02T07:14:07.756Z,88.69
2022-12-02T07:16:34.822Z,88.47
2022-12-02T07:18:44.837Z,88.15
2022-12-02T07:20:50.366Z,88.00
2022-12-02T07:22:59.089Z,87.87
2022-12-02T07:25:30.295Z,87.86
2022-12-02T07:27:37.543Z,87.77
2022-12-02T07:29:42.301Z,87.78
2022-12-02T07:31:47.326Z,87.76
2022-12-02T07:33:52.619Z,87.48
2022-12-02T07:35:57.897Z,87.61
2022-12-02T07:38:02.679Z,87.60
2022-12-02T07:40:09.257Z,87.52
2022-12-02T07:42:14.047Z,88.03
2022-12-02T07:44:18.751Z,88.06
2022-12-02T07:46:23.719Z,87.82
2022-12-02T07:48:28.637Z,87.57
2022-12-02T07:50:34.222Z,87.89
2022-12-02T07:52:39.112Z,87.83
2022-12-02T07:54:44.485Z,87.70
2022-12-02T07:56:49.171Z,87.66
2022-12-02T08:01:20.063Z,87.75
2022-12-02T08:03:24.916Z,87.88
2022-12-02T08:05:29.903Z,87.93
2022-12-02T08:07:34.699Z,87.84
2022-12-02T08:09:39.352Z,88.12
2022-12-02T08:11:47.800Z,88.21
2022-12-02T08:13:52.867Z,88.01
2022-12-02T08:15:57.558Z,87.52
2022-12-02T08:18:02.278Z,86.93
2022-12-02T08:20:10.723Z,86.95
2022-12-02T08:22:15.879Z,86.82
2022-12-02T08:24:20.747Z,86.84
2022-12-02T08:26:26.059Z,86.75
2022-12-02T08:28:30.885Z,86.57
2022-12-02T08:30:35.605Z,86.44
2022-12-02T08:32:40.428Z,86.59
2022-12-02T08:34:45.374Z,86.56
2022-12-02T08:36:50.229Z,86.80
2022-12-02T08:38:54.876Z,86.96
2022-12-02T08:40:59.811Z,86.60
2022-12-02T08:43:04.658Z,86.52
2022-12-02T08:45:13.020Z,86.35
2022-12-02T08:47:17.722Z,86.53
2022-12-02T08:49:22.416Z,86.15
2022-12-02T08:51:27.515Z,86.08
2022-12-02T08:53:32.395Z,85.97
2022-12-02T08:55:37.468Z,85.96
2022-12-02T08:57:42.210Z,85.97
2022-12-02T08:59:46.941Z,85.57
2022-12-02T09:01:52.055Z,85.37
2022-12-02T09:03:56.840Z,85.31
2022-12-02T09:06:02.010Z,84.96
2022-12-02T09:08:07.163Z,85.31
2022-12-02T09:10:12.985Z,85.29
2022-12-02T09:12:18.055Z,85.68
2022-12-02T09:14:22.783Z,85.27
2022-12-02T09:16:27.620Z,85.16
2022-12-02T09:18:32.368Z,85.19
2022-12-02T09:20:37.148Z,85.28
2022-12-02T09:22:41.851Z,85.03
2022-12-02T09:24:46.831Z,84.93
2022-12-02T09:26:51.534Z,84.62
2022-12-02T09:28:56.377Z,84.44
2022-12-02T09:31:01.223Z,84.78
2022-12-02T09:33:05.914Z,84.65
2022-12-02T09:35:11.153Z,84.62
2022-12-02T09:37:15.990Z,83.98
2022-12-02T09:39:21.045Z,84.70
2022-12-02T09:41:28.897Z,85.07
2022-12-02T09:43:33.779Z,85.66
2022-12-02T09:45:38.570Z,85.46
2022-12-02T09:47:43.659Z,84.49
2022-12-02T09:49:49.213Z,84.29
2022-12-02T09:51:58.351Z,84.49
2022-12-02T09:54:04.260Z,84.56
2022-12-02T09:56:13.567Z,84.33
2022-12-02T09:58:21.904Z,84.18
2022-12-02T10:00:26.854Z,84.84
2022-12-02T10:02:39.429Z,84.99
2022-12-02T10:04:44.128Z,84.90
2022-12-02T10:06:49.229Z,85.24
2022-12-02T10:08:55.997Z,85.81
2022-12-02T10:11:01.586Z,86.59
2022-12-02T10:13:08.207Z,87.29
2022-12-02T10:15:16.877Z,87.60
2022-12-02T10:17:22.613Z,87.63
2022-12-02T10:19:27.276Z,88.36
2022-12-02T10:21:31.989Z,89.33
2022-12-02T10:23:54.239Z,88.95
2022-12-02T10:26:12.973Z,89.20
2022-12-02T10:28:23.663Z,89.82
2022-12-02T10:30:29.559Z,89.78
2022-12-02T10:32:34.302Z,89.94
2022-12-02T10:34:39.081Z,89.37
2022-12-02T10:36:44.979Z,89.73
2022-12-02T10:38:49.822Z,89.64
2022-12-02T10:41:11.102Z,90.06
2022-12-02T10:43:15.855Z,90.91
2022-12-02T10:45:23.198Z,90.81
2022-12-02T10:47:28.590Z,90.38
2022-12-02T10:49:34.511Z,89.87
2022-12-02T10:51:39.421Z,90.10
2022-12-02T10:53:45.635Z,90.42
2022-12-02T10:55:50.509Z,91.56
2022-12-02T10:57:55.475Z,92.19
2022-12-02T11:00:08.053Z,92.90
2022-12-02T11:02:21.722Z,92.34
2022-12-02T11:04:28.101Z,92.24
2022-12-02T11:06:32.793Z,91.90
2022-12-02T11:08:37.794Z,91.70
2022-12-02T11:10:44.837Z,91.86
2022-12-02T11:13:16.736Z,92.28
2022-12-02T11:15:44.992Z,92.98
2022-12-02T11:17:53.765Z,92.84
2022-12-02T11:20:34.804Z,92.75
2022-12-02T11:23:21.664Z,93.21
2022-12-02T11:26:03.283Z,93.71
2022-12-02T11:28:37.754Z,93.76
2022-12-02T11:30:42.497Z,94.15
2022-12-02T11:32:50.331Z,94.94
2022-12-02T11:37:43.384Z,95.60
2022-12-02T11:39:52.873Z,95.49
2022-12-02T11:42:20.888Z,95.40
2022-12-02T11:44:28.621Z,95.58
2022-12-02T11:46:46.110Z,95.33
2022-12-02T11:48:52.825Z,95.04
2022-12-02T11:50:57.809Z,94.41
2022-12-02T11:53:10.834Z,95.11
2022-12-02T11:55:18.962Z,96.63
2022-12-02T11:57:27.913Z,95.99
2022-12-02T11:59:34.310Z,96.76
2022-12-02T12:01:39.157Z,95.94
2022-12-02T12:03:45.342Z,95.96
2022-12-02T12:06:07.929Z,96.57
2022-12-02T12:08:26.749Z,96.27
2022-12-02T12:10:33.976Z,96.74
2022-12-02T12:12:38.826Z,97.06
2022-12-02T12:15:04.180Z,96.88
2022-12-02T12:17:32.569Z,96.72
2022-12-02T12:19:37.715Z,97.38
2022-12-02T12:21:47.579Z,97.85
2022-12-02T12:23:52.552Z,98.10
2022-12-02T12:25:57.592Z,97.58
2022-12-02T12:28:02.790Z,97.40
2022-12-02T12:30:09.693Z,96.94
2022-12-02T12:32:17.396Z,96.84
2022-12-02T12:34:22.334Z,97.19
2022-12-02T12:36:27.748Z,97.09
2022-12-02T12:38:33.052Z,98.27
2022-12-02T12:40:38.102Z,98.19
2022-12-02T12:42:43.262Z,99.06
2022-12-02T12:44:48.281Z,99.26
2022-12-02T12:46:53.318Z,99.85
2022-12-02T12:48:58.263Z,100.00
2022-12-02T12:51:03.278Z,99.64
2022-12-02T12:53:08.025Z,99.90
2022-12-02T12:55:13.044Z,99.65
2022-12-02T12:57:19.299Z,99.34
2022-12-02T12:59:24.254Z,99.29
2022-12-02T13:01:29.345Z,99.54
2022-12-02T13:03:34.556Z,99.90
2022-12-02T13:05:39.338Z,99.94
2022-12-02T13:07:44.213Z,99.43
2022-12-02T13:09:49.178Z,99.20
2022-12-02T13:11:53.936Z,99.10
2022-12-02T13:13:58.710Z,99.73
2022-12-02T13:16:03.529Z,99.63
2022-12-02T13:18:08.197Z,99.36
2022-12-02T13:20:13.792Z,99.91
2022-12-02T13:22:18.406Z,99.51
2022-12-02T13:24:23.276Z,99.34
2022-12-02T13:26:28.120Z,99.90
2022-12-02T13:28:32.872Z,99.99
2022-12-02T13:30:42.218Z,100.00
2022-12-02T13:32:47.971Z,100.00
2022-12-02T13:34:52.889Z,100.00
2022-12-02T13:36:57.853Z,99.73
2022-12-02T13:39:06.564Z,99.32
2022-12-02T13:41:13.876Z,99.49
2022-12-02T13:43:18.988Z,99.85
2022-12-02T13:45:23.776Z,99.56
2022-12-02T13:47:28.415Z,99.54
2022-12-02T13:49:33.178Z,99.83
2022-12-02T13:51:37.896Z,99.57
2022-12-02T13:53:42.636Z,99.05
2022-12-02T13:55:47.322Z,99.08
2022-12-02T13:57:52.492Z,99.07
2022-12-02T13:59:57.183Z,99.39
2022-12-02T14:02:02.066Z,99.86
2022-12-02T14:04:07.321Z,100.00
2022-12-02T14:06:12.165Z,100.00
2022-12-02T14:08:17.059Z,100.00
2022-12-02T14:10:22.108Z,100.00
2022-12-02T14:12:26.785Z,100.00
2022-12-02T14:14:31.444Z,100.00
2022-12-02T14:16:36.271Z,99.99
2022-12-02T14:18:42.209Z,99.96
2022-12-02T14:20:47.318Z,99.30
2022-12-02T14:22:52.134Z,99.22
2022-12-02T14:24:56.781Z,99.22
2022-12-02T14:27:01.527Z,99.52
2022-12-02T14:29:06.372Z,99.68
2022-12-02T14:31:20.306Z,99.50
2022-12-02T14:33:54.766Z,99.34
2022-12-02T14:35:55.009Z,99.76
2022-12-02T14:37:59.721Z,99.07
2022-12-02T14:40:06.517Z,98.91
2022-12-02T14:42:11.195Z,99.81
2022-12-02T14:44:16.122Z,99.72
2022-12-02T14:46:21.045Z,99.12
2022-12-02T14:48:28.267Z,98.89
2022-12-02T14:50:33.149Z,99.34
2022-12-02T14:52:37.922Z,98.97
2022-12-02T14:54:42.670Z,98.71
2022-12-02T14:56:47.351Z,98.51
2022-12-02T14:58:52.065Z,98.59
2022-12-02T15:00:57.466Z,98.30
2022-12-02T15:03:02.264Z,98.86
2022-12-02T15:05:13.940Z,99.09
2022-12-02T15:07:19.246Z,98.84
2022-12-02T15:09:23.963Z,98.73
2022-12-02T15:11:28.953Z,98.84
2022-12-02T15:13:33.816Z,99.56
2022-12-02T15:15:39.902Z,99.94
2022-12-02T15:17:45.294Z,99.25
2022-12-02T15:19:50.439Z,99.38
2022-12-02T15:21:55.084Z,99.70
2022-12-02T15:24:00.220Z,99.92
2022-12-02T15:26:07.529Z,99.73
2022-12-02T15:28:12.691Z,99.50
2022-12-02T15:30:18.037Z,99.38
2022-12-02T15:32:22.801Z,99.82
2022-12-02T15:34:28.951Z,99.82
2022-12-02T15:36:34.624Z,99.93
2022-12-02T15:38:40.339Z,99.97
2022-12-02T15:40:45.635Z,100.00
2022-12-02T15:42:51.037Z,100.00
2022-12-02T15:44:56.226Z,100.00
2022-12-02T15:47:01.647Z,100.00
2022-12-02T15:49:06.564Z,100.00
2022-12-02T15:51:12.101Z,100.00
2022-12-02T15:53:17.268Z,99.87
2022-12-02T15:55:23.343Z,99.86
2022-12-02T15:57:28.993Z,99.99
2022-12-02T15:59:35.345Z,99.95
2022-12-02T16:01:41.960Z,100.00
2022-12-02T16:03:48.522Z,100.00
2022-12-02T16:05:54.199Z,100.00
2022-12-02T16:08:02.452Z,100.00
2022-12-02T16:10:10.332Z,100.00
2022-12-02T16:12:15.379Z,100.00
2022-12-02T16:14:20.424Z,100.00
2022-12-02T16:16:26.021Z,100.00
2022-12-02T16:18:31.672Z,100.00
2022-12-02T16:20:38.738Z,100.00
2022-12-02T16:22:44.416Z,99.80
2022-12-02T16:24:49.980Z,99.87
2022-12-02T16:26:56.352Z,99.98
2022-12-02T16:29:01.446Z,99.82
2022-12-02T16:31:09.177Z,99.97
2022-12-02T16:33:14.107Z,100.00
2022-12-02T16:35:19.179Z,100.00
2022-12-02T16:37:23.903Z,100.00
2022-12-02T16:39:29.073Z,99.97
2022-12-02T16:41:34.398Z,99.99
2022-12-02T16:43:40.196Z,100.00
2022-12-02T16:45:45.279Z,100.00
2022-12-02T16:47:50.552Z,99.97
2022-12-02T16:49:56.362Z,99.96
2022-12-02T16:52:01.571Z,100.00
2022-12-02T16:54:08.071Z,100.00
2022-12-02T16:56:12.971Z,100.00
2022-12-02T16:58:18.261Z,100.00
2022-12-02T17:00:23.587Z,100.00
2022-12-02T17:02:32.542Z,100.00
2022-12-02T17:04:38.435Z,100.00
2022-12-02T17:06:47.262Z,100.00
2022-12-02T17:08:55.861Z,100.00
2022-12-02T17:11:02.249Z,100.00
2022-12-02T17:13:08.071Z,100.00
2022-12-02T17:15:13.077Z,100.00
2022-12-02T17:17:43.629Z,100.00
2022-12-02T17:19:43.462Z,100.00
2022-12-02T17:21:48.361Z,100.00
2022-12-02T17:23:54.233Z,100.00
2022-12-02T17:25:59.533Z,100.00
2022-12-02T17:28:05.621Z,100.00
2022-12-02T17:30:13.721Z,100.00
2022-12-02T17:32:19.028Z,100.00
2022-12-02T17:34:23.878Z,100.00
2022-12-02T17:36:30.244Z,100.00
2022-12-02T17:38:37.064Z,100.00
2022-12-02T17:40:42.439Z,100.00
2022-12-02T17:42:47.825Z,100.00
2022-12-02T17:44:54.152Z,100.00
2022-12-02T17:47:00.770Z,100.00
2022-12-02T17:49:08.285Z,100.00
2022-12-02T17:51:15.682Z,100.00
2022-12-02T17:53:21.571Z,100.00
2022-12-02T17:55:31.952Z,100.00
2022-12-02T17:57:39.638Z,100.00
2022-12-02T17:59:46.461Z,100.00
2022-12-02T18:01:51.855Z,100.00
2022-12-02T18:03:57.205Z,100.00
2022-12-02T18:06:02.108Z,100.00
2022-12-02T18:08:09.296Z,100.00
2022-12-02T18:10:17.215Z,100.00
2022-12-02T18:12:26.990Z,100.00
2022-12-02T18:14:37.569Z,100.00
2022-12-02T18:16:44.503Z,100.00
2022-12-02T18:18:49.992Z,100.00
2022-12-02T18:20:55.793Z,100.00
2022-12-02T18:23:01.254Z,100.00
2022-12-02T18:25:09.176Z,100.00
2022-12-02T18:27:15.794Z,100.00
2022-12-02T18:29:21.631Z,100.00
2022-12-02T18:31:30.651Z,100.00
2022-12-02T18:33:37.328Z,100.00
2022-12-02T18:35:43.808Z,100.00
2022-12-02T18:37:50.291Z,100.00
2022-12-02T18:39:58.555Z,100.00
2022-12-02T18:42:04.900Z,100.00
2022-12-02T18:44:10.767Z,100.00
2022-12-02T18:46:17.750Z,100.00
2022-12-02T18:48:25.738Z,100.00
2022-12-02T18:50:32.389Z,100.00
2022-12-02T18:52:39.882Z,100.00
2022-12-02T18:54:46.557Z,100.00
2022-12-02T18:56:53.766Z,100.00
2022-12-02T18:59:00.080Z,100.00
2022-12-02T19:01:10.175Z,100.00
2022-12-02T19:03:18.880Z,100.00
2022-12-02T19:05:27.926Z,100.00
2022-12-02T19:07:38.004Z,100.00
2022-12-02T19:09:46.464Z,100.00
2022-12-02T19:11:56.732Z,100.00
2022-12-02T19:14:04.754Z,100.00
2022-12-02T19:16:12.262Z,100.00
2022-12-02T19:18:22.361Z,100.00
2022-12-02T19:20:28.443Z,100.00
2022-12-02T19:22:37.594Z,100.00
2022-12-02T19:24:46.301Z,100.00
2022-12-02T19:26:52.914Z,100.00
2022-12-02T19:29:01.460Z,100.00
2022-12-02T19:31:08.902Z,100.00
2022-12-02T19:33:16.055Z,100.00
2022-12-02T19:35:22.526Z,100.00
2022-12-02T19:37:31.442Z,100.00
2022-12-02T19:39:37.662Z,100.00
2022-12-02T19:41:46.235Z,100.00
2022-12-02T19:43:56.433Z,100.00
2022-12-02T19:46:07.575Z,100.00
2022-12-02T19:48:21.180Z,100.00
2022-12-02T19:50:31.072Z,100.00
2022-12-02T19:52:37.464Z,100.00
2022-12-02T19:54:51.026Z,100.00
2022-12-02T19:57:06.683Z,100.00
2022-12-02T19:59:13.645Z,100.00
2022-12-02T20:01:24.476Z,100.00
2022-12-02T20:03:32.224Z,100.00
2022-12-02T20:05:38.631Z,100.00
2022-12-02T20:07:46.557Z,100.00
2022-12-02T20:10:03.441Z,100.00
2022-12-02T20:12:10.926Z,100.00
2022-12-02T20:14:20.358Z,100.00
2022-12-02T20:16:30.598Z,100.00
2022-12-02T20:18:39.951Z,100.00
2022-12-02T20:20:46.309Z,100.00
2022-12-02T20:22:53.123Z,100.00
2022-12-02T20:25:01.998Z,100.00
2022-12-02T20:27:11.979Z,100.00
2022-12-02T20:29:21.360Z,100.00
2022-12-02T20:31:28.713Z,100.00
2022-12-02T20:33:35.176Z,100.00
2022-12-02T20:35:42.205Z,100.00
2022-12-02T20:37:48.807Z,100.00
2022-12-02T20:39:55.689Z,100.00
2022-12-02T20:42:04.149Z,100.00
2022-12-02T20:44:11.914Z,100.00
2022-12-02T20:46:19.031Z,100.00
2022-12-02T20:48:27.584Z,100.00
2022-12-02T20:50:35.147Z,100.00
2022-12-02T20:52:49.674Z,100.00
2022-12-02T20:55:00.323Z,100.00
2022-12-02T20:57:08.584Z,100.00
2022-12-02T20:59:15.535Z,100.00
2022-12-02T21:01:22.659Z,100.00
2022-12-02T21:03:30.746Z,100.00
2022-12-02T21:05:37.321Z,100.00
2022-12-02T21:07:43.395Z,100.00
2022-12-02T21:09:50.610Z,100.00
2022-12-02T21:11:57.689Z,100.00
2022-12-02T21:14:03.317Z,100.00
2022-12-02T21:16:19.135Z,100.00
2022-12-02T21:18:25.767Z,100.00
2022-12-02T21:20:33.421Z,100.00
2022-12-02T21:22:41.304Z,100.00
2022-12-02T21:24:47.562Z,100.00
2022-12-02T21:26:54.847Z,100.00
2022-12-02T21:29:01.830Z,100.00
2022-12-02T21:31:07.721Z,100.00
2022-12-02T21:33:13.157Z,100.00
2022-12-02T21:35:18.140Z,100.00
2022-12-02T21:37:23.400Z,100.00
2022-12-02T21:39:28.615Z,100.00
2022-12-02T21:41:34.523Z,100.00
2022-12-02T21:43:40.257Z,100.00
2022-12-02T21:45:45.764Z,100.00
2022-12-02T21:47:51.140Z,100.00
2022-12-02T21:49:57.185Z,100.00
2022-12-02T21:52:03.084Z,100.00
2022-12-02T21:54:07.993Z,100.00
2022-12-02T21:56:12.772Z,100.00
2022-12-02T21:58:17.550Z,100.00
2022-12-02T22:00:23.565Z,100.00
2022-12-02T22:02:28.395Z,100.00
2022-12-02T22:04:33.183Z,100.00
2022-12-02T22:06:37.915Z,100.00
2022-12-02T22:08:42.616Z,100.00
2022-12-02T22:10:47.274Z,100.00
2022-12-02T22:12:52.697Z,100.00
2022-12-02T22:14:57.370Z,100.00
2022-12-02T22:17:02.219Z,100.00
2022-12-02T22:19:10.376Z,100.00
2022-12-02T22:21:19.459Z,100.00
2022-12-02T22:23:24.128Z,100.00
2022-12-02T22:25:28.777Z,100.00
2022-12-02T22:27:33.492Z,100.00
2022-12-02T22:29:38.189Z,100.00
2022-12-02T22:31:43.014Z,100.00
2022-12-02T22:33:47.839Z,100.00
2022-12-02T22:35:52.674Z,100.00
2022-12-02T22:37:57.588Z,100.00
2022-12-02T22:40:02.528Z,100.00
2022-12-02T22:42:07.482Z,100.00
2022-12-02T22:44:12.594Z,100.00
2022-12-02T22:46:17.542Z,100.00
2022-12-02T22:48:22.384Z,100.00
2022-12-02T22:50:27.105Z,100.00
2022-12-02T22:52:31.862Z,100.00
2022-12-02T22:54:37.867Z,100.00
2022-12-02T22:56:42.766Z,100.00
2022-12-02T22:58:47.643Z,100.00
2022-12-02T23:00:52.585Z,100.00
2022-12-02T23:02:57.606Z,100.00
2022-12-02T23:05:02.392Z,99.92
2022-12-02T23:07:07.179Z,99.95
2022-12-02T23:09:12.103Z,100.00
2022-12-02T23:11:17.017Z,99.96
2022-12-02T23:13:21.890Z,99.87
2022-12-02T23:15:42.243Z,99.93
2022-12-02T23:17:47.260Z,99.93
2022-12-02T23:19:52.113Z,99.86
2022-12-02T23:21:56.917Z,99.77
2022-12-02T23:24:01.745Z,99.90
2022-12-02T23:26:06.818Z,99.96
2022-12-02T23:28:11.852Z,99.61
2022-12-02T23:30:17.083Z,99.03
2022-12-02T23:32:21.955Z,99.02
2022-12-02T23:34:26.842Z,99.17
2022-12-02T23:36:35.061Z,99.15
2022-12-02T23:38:40.085Z,99.12
2022-12-02T23:40:44.907Z,98.87
2022-12-02T23:42:50.337Z,98.60
2022-12-02T23:44:55.614Z,98.71
2022-12-02T23:47:00.730Z,98.94
2022-12-02T23:49:05.966Z,98.61
2022-12-02T23:51:10.868Z,98.63
2022-12-02T23:53:16.066Z,98.78
2022-12-02T23:55:20.867Z,98.62
2022-12-02T23:57:26.752Z,98.51
2022-12-02T23:59:31.660Z,98.80
